Time;durP1;ratioP1;P1;durP2;ratioP2;P2;SDS_P1;SDS_P2;PMS_P1;PMS_P2;Temp;Humidity;BMP_temperature;BMP_pressure;BME280_temperature;BME280_humidity;BME280_pressure;Samples;Min_cycle;Max_cycle;Signal;HPM_P1;HPM_P2
2021/06/07 00:00:09;;;;;;;5.60;5.10;;;;;;;;;;4982829;28;20224;-86
2021/06/07 00:03:17;;;;;;;5.73;5.23;;;;;;;;;;4985412;28;20210;-86
2021/06/07 00:06:21;;;;;;;8.73;5.23;;;;;;;;;;4985045;28;20179;-86
2021/06/07 00:09:26;;;;;;;5.67;5.17;;;;;;;;;;5005895;28;20198;-86
2021/06/07 00:12:31;;;;;;;6.03;5.43;;;;;;;;;;4982214;28;20197;-86
2021/06/07 00:15:36;;;;;;;6.30;5.70;;;;;;;;;;4988005;28;20221;-86
2021/06/07 00:18:40;;;;;;;6.67;5.60;;;;;;;;;;4969576;28;20198;-86
2021/06/07 00:21:46;;;;;;;7.97;5.80;;;;;;;;;;4963800;28;20198;-86
2021/06/07 00:24:50;;;;;;;6.73;5.70;;;;;;;;;;4973870;28;20219;-86
2021/06/07 00:27:55;;;;;;;5.50;5.00;;;;;;;;;;4974168;28;20194;-86
2021/06/07 00:31:00;;;;;;;6.00;5.50;;;;;;;;;;4982678;28;20534;-86
2021/06/07 00:34:06;;;;;;;5.80;5.30;;;;;;;;;;4981965;28;20214;-86
2021/06/07 00:37:10;;;;;;;6.30;5.20;;;;;;;;;;4993210;28;20183;-86
2021/06/07 00:40:16;;;;;;;6.20;5.60;;;;;;;;;;4972284;28;20538;-86
2021/06/07 00:43:20;;;;;;;6.33;5.73;;;;;;;;;;5012591;28;20680;-86
2021/06/07 00:46:25;;;;;;;6.83;6.23;;;;;;;;;;4963342;28;20534;-87
2021/06/07 00:49:29;;;;;;;10.83;7.53;;;;;;;;;;4984206;28;20182;-86
2021/06/07 00:52:34;;;;;;;9.73;7.87;;;;;;;;;;4973691;28;20515;-86
2021/06/07 00:55:46;;;;;;;10.20;8.70;;;;;;;;;;4998200;28;20209;-86
2021/06/07 00:58:51;;;;;;;9.33;7.57;;;;;;;;;;4988405;28;20194;-86
2021/06/07 01:01:55;;;;;;;9.00;8.10;;;;;;;;;;4980544;28;20194;-86
2021/06/07 01:04:59;;;;;;;10.57;8.50;;;;;;;;;;4993624;28;20213;-86
2021/06/07 01:08:05;;;;;;;8.87;7.97;;;;;;;;;;5004624;28;20680;-86
2021/06/07 01:11:10;;;;;;;8.77;7.87;;;;;;;;;;4988441;28;20205;-86
2021/06/07 01:14:15;;;;;;;11.27;8.40;;;;;;;;;;4978253;28;20561;-86
2021/06/07 01:17:19;;;;;;;12.10;8.97;;;;;;;;;;5000572;28;20194;-86
2021/06/07 01:20:25;;;;;;;11.30;8.90;;;;;;;;;;4986992;28;20555;-86
2021/06/07 01:23:29;;;;;;;10.53;9.40;;;;;;;;;;4992831;28;20213;-86
2021/06/07 01:26:52;;;;;;;10.17;8.67;;;;;;;;;;4986415;28;20199;-86
2021/06/07 01:30:18;;;;;;;11.90;9.70;;;;;;;;;;4999695;28;20549;-86
2021/06/07 01:33:25;;;;;;;10.63;9.53;;;;;;;;;;4977676;28;20189;-86
2021/06/07 01:36:29;;;;;;;9.97;8.97;;;;;;;;;;5013620;28;20551;-86
2021/06/07 01:39:34;;;;;;;10.77;9.57;;;;;;;;;;5009232;28;20194;-86
2021/06/07 01:42:38;;;;;;;13.40;9.67;;;;;;;;;;5003963;28;20205;-86
2021/06/07 01:46:01;;;;;;;10.10;9.10;;;;;;;;;;5010573;28;20530;-86
2021/06/07 01:49:05;;;;;;;9.43;8.50;;;;;;;;;;4988671;28;20186;-86
2021/06/07 01:52:15;;;;;;;10.23;9.13;;;;;;;;;;4990037;28;20187;-86
2021/06/07 01:55:22;;;;;;;10.37;8.80;;;;;;;;;;4992406;28;20221;-86
2021/06/07 01:58:27;;;;;;;11.23;9.17;;;;;;;;;;4970632;28;20194;-86
2021/06/07 02:01:52;;;;;;;12.13;8.73;;;;;;;;;;4990714;28;20187;-86
2021/06/07 02:04:56;;;;;;;11.40;9.47;;;;;;;;;;4993445;28;20217;-86
2021/06/07 02:08:05;;;;;;;10.90;9.77;;;;;;;;;;4968104;28;20210;-86
2021/06/07 02:11:19;;;;;;;12.23;10.30;;;;;;;;;;4984687;28;20198;-86
2021/06/07 02:14:23;;;;;;;11.33;9.47;;;;;;;;;;4990775;28;20240;-86
2021/06/07 02:17:28;;;;;;;13.97;10.63;;;;;;;;;;5003565;28;20194;-86
2021/06/07 02:20:34;;;;;;;14.60;11.07;;;;;;;;;;4976171;28;20193;-86
2021/06/07 02:23:39;;;;;;;12.20;9.83;;;;;;;;;;4988192;28;20795;-86
2021/06/07 02:26:43;;;;;;;12.97;11.00;;;;;;;;;;4994130;28;20185;-86
2021/06/07 02:29:47;;;;;;;12.37;11.03;;;;;;;;;;5014229;28;20209;-86
2021/06/07 02:32:53;;;;;;;14.60;11.63;;;;;;;;;;4964409;28;20190;-86
2021/06/07 02:35:57;;;;;;;12.80;10.60;;;;;;;;;;5000489;28;20204;-86
2021/06/07 02:39:09;;;;;;;12.53;10.27;;;;;;;;;;5014880;28;20672;-86
2021/06/07 02:42:14;;;;;;;15.73;11.33;;;;;;;;;;4990697;28;20188;-86
2021/06/07 02:45:19;;;;;;;12.30;11.00;;;;;;;;;;4997100;28;20216;-86
2021/06/07 02:48:24;;;;;;;12.83;11.43;;;;;;;;;;4981707;28;20193;-86
2021/06/07 02:51:28;;;;;;;13.27;11.67;;;;;;;;;;5005363;28;20193;-86
2021/06/07 02:54:32;;;;;;;13.47;11.53;;;;;;;;;;4995969;28;20220;-86
2021/06/07 02:57:36;;;;;;;14.97;11.10;;;;;;;;;;5013187;28;20204;-86
2021/06/07 03:00:48;;;;;;;12.73;11.07;;;;;;;;;;4974448;28;20205;-86
2021/06/07 03:03:52;;;;;;;13.20;9.77;;;;;;;;;;4994059;28;20245;-86
2021/06/07 03:06:57;;;;;;;11.60;10.40;;;;;;;;;;4991958;28;20190;-86
2021/06/07 03:10:05;;;;;;;13.70;10.33;;;;;;;;;;5002164;28;20200;-86
2021/06/07 03:13:10;;;;;;;12.13;10.87;;;;;;;;;;4971959;28;20177;-86
2021/06/07 03:16:15;;;;;;;12.10;10.17;;;;;;;;;;4975176;28;20205;-86
2021/06/07 03:19:19;;;;;;;12.10;10.70;;;;;;;;;;4981706;28;20201;-86
2021/06/07 03:22:24;;;;;;;16.43;11.53;;;;;;;;;;4993948;28;20197;-86
2021/06/07 03:25:29;;;;;;;12.33;11.03;;;;;;;;;;4992613;28;20576;-86
2021/06/07 03:28:34;;;;;;;12.07;10.73;;;;;;;;;;4978254;28;20200;-86
2021/06/07 03:31:39;;;;;;;11.43;10.20;;;;;;;;;;4994738;28;20220;-86
2021/06/07 03:34:43;;;;;;;12.00;10.17;;;;;;;;;;4971745;28;20224;-86
2021/06/07 03:37:48;;;;;;;16.40;11.10;;;;;;;;;;4985437;28;20209;-86
2021/06/07 03:40:54;;;;;;;13.33;10.53;;;;;;;;;;4999660;28;20212;-86
2021/06/07 03:43:58;;;;;;;13.40;10.77;;;;;;;;;;4988944;28;20231;-86
2021/06/07 03:47:02;;;;;;;14.47;11.10;;;;;;;;;;4963158;28;20182;-86
2021/06/07 03:50:09;;;;;;;11.17;9.93;;;;;;;;;;4976524;28;20680;-86
2021/06/07 03:53:15;;;;;;;12.00;10.10;;;;;;;;;;4991080;28;20185;-86
2021/06/07 03:56:19;;;;;;;11.83;9.80;;;;;;;;;;4969328;28;20552;-86
2021/06/07 03:59:23;;;;;;;12.53;10.73;;;;;;;;;;5007119;28;20198;-86
2021/06/07 04:02:28;;;;;;;12.73;10.30;;;;;;;;;;4962970;28;20218;-86
2021/06/07 04:05:33;;;;;;;11.30;9.97;;;;;;;;;;4970838;28;20217;-86
2021/06/07 04:08:38;;;;;;;10.47;9.37;;;;;;;;;;4968331;28;20650;-86
2021/06/07 04:11:42;;;;;;;12.80;9.57;;;;;;;;;;5008341;28;20648;-86
2021/06/07 04:14:46;;;;;;;11.80;9.57;;;;;;;;;;4986240;28;20211;-86
2021/06/07 04:17:51;;;;;;;10.30;9.20;;;;;;;;;;4979592;28;20194;-86
2021/06/07 04:20:56;;;;;;;9.27;8.27;;;;;;;;;;4994153;28;20197;-86
2021/06/07 04:24:00;;;;;;;9.87;8.87;;;;;;;;;;4989417;28;20229;-85
2021/06/07 04:27:09;;;;;;;10.03;8.27;;;;;;;;;;4992051;28;20541;-85
2021/06/07 04:30:17;;;;;;;10.23;8.77;;;;;;;;;;4985237;28;20641;-86
2021/06/07 04:33:25;;;;;;;9.33;8.33;;;;;;;;;;4962604;28;20195;-85
2021/06/07 04:36:29;;;;;;;8.80;7.60;;;;;;;;;;5032450;22;20227;-89
2021/06/07 04:39:33;;;;;;;8.53;7.70;;;;;;;;;;5033512;28;20530;-89
2021/06/07 04:42:38;;;;;;;9.97;7.70;;;;;;;;;;5045011;28;20184;-89
2021/06/07 04:45:44;;;;;;;7.30;6.60;;;;;;;;;;5061114;28;20188;-88
2021/06/07 04:48:48;;;;;;;9.53;7.63;;;;;;;;;;5064107;28;20527;-88
2021/06/07 04:51:52;;;;;;;8.13;6.50;;;;;;;;;;5051227;28;20187;-90
2021/06/07 04:54:56;;;;;;;6.83;6.13;;;;;;;;;;5040665;28;20184;-90
2021/06/07 04:58:14;;;;;;;7.10;6.17;;;;;;;;;;5042297;28;20224;-90
2021/06/07 05:01:18;;;;;;;7.07;6.10;;;;;;;;;;5033736;28;20180;-90
2021/06/07 05:04:22;;;;;;;6.83;5.97;;;;;;;;;;5048494;28;20219;-90
2021/06/07 05:07:26;;;;;;;5.90;5.40;;;;;;;;;;5045539;28;20697;-89
2021/06/07 05:10:31;;;;;;;6.43;5.53;;;;;;;;;;5053340;28;20183;-89
2021/06/07 05:13:35;;;;;;;8.63;6.40;;;;;;;;;;5037775;28;20179;-90
2021/06/07 05:16:39;;;;;;;6.07;5.57;;;;;;;;;;5049830;28;20215;-90
2021/06/07 05:19:45;;;;;;;6.13;5.50;;;;;;;;;;5053238;28;20199;-90
2021/06/07 05:22:51;;;;;;;7.10;6.47;;;;;;;;;;5053143;28;20176;-89
2021/06/07 05:25:57;;;;;;;7.60;6.90;;;;;;;;;;5013663;28;20185;-89
2021/06/07 05:29:01;;;;;;;19.13;9.30;;;;;;;;;;5048925;28;20520;-90
2021/06/07 05:32:06;;;;;;;8.80;7.90;;;;;;;;;;5059215;28;20192;-90
2021/06/07 05:35:12;;;;;;;8.73;7.23;;;;;;;;;;5071515;28;20184;-89
2021/06/07 05:38:17;;;;;;;6.53;5.93;;;;;;;;;;5032976;28;20196;-90
2021/06/07 05:41:21;;;;;;;7.03;5.67;;;;;;;;;;5031296;28;20203;-90
2021/06/07 05:44:25;;;;;;;6.43;5.83;;;;;;;;;;5053096;28;20203;-90
2021/06/07 05:47:30;;;;;;;6.27;5.67;;;;;;;;;;5062705;28;20211;-89
2021/06/07 05:50:35;;;;;;;5.23;4.73;;;;;;;;;;5023620;28;20203;-90
2021/06/07 05:53:39;;;;;;;5.90;5.17;;;;;;;;;;5049748;28;20195;-90
2021/06/07 05:56:43;;;;;;;6.23;5.27;;;;;;;;;;5063791;28;20211;-90
2021/06/07 05:59:47;;;;;;;7.60;6.00;;;;;;;;;;5051406;28;20203;-90
2021/06/07 06:02:52;;;;;;;6.53;5.60;;;;;;;;;;5024015;28;20204;-90
2021/06/07 06:05:56;;;;;;;5.97;5.37;;;;;;;;;;5044319;28;20219;-90
2021/06/07 06:09:00;;;;;;;7.30;5.00;;;;;;;;;;5049704;28;20191;-90
2021/06/07 06:12:05;;;;;;;5.63;4.77;;;;;;;;;;5074920;28;20187;-90
2021/06/07 06:15:12;;;;;;;5.97;4.30;;;;;;;;;;5063232;28;20171;-90
2021/06/07 06:18:16;;;;;;;7.43;4.80;;;;;;;;;;5062766;28;20188;-90
2021/06/07 06:21:20;;;;;;;5.20;4.60;;;;;;;;;;5063300;28;20199;-90
2021/06/07 06:24:24;;;;;;;5.17;4.43;;;;;;;;;;5050151;28;20223;-90
2021/06/07 06:27:28;;;;;;;4.80;4.40;;;;;;;;;;5023636;28;20564;-90
2021/06/07 06:30:33;;;;;;;5.37;4.30;;;;;;;;;;5046126;28;20536;-90
2021/06/07 06:33:37;;;;;;;5.13;4.47;;;;;;;;;;5052293;28;20180;-89
2021/06/07 06:36:41;;;;;;;7.50;5.27;;;;;;;;;;5021478;28;20220;-89
2021/06/07 06:39:45;;;;;;;5.90;5.30;;;;;;;;;;5042961;28;20184;-89
2021/06/07 06:42:55;;;;;;;6.90;4.57;;;;;;;;;;5031146;28;20516;-89
2021/06/07 06:46:00;;;;;;;8.07;5.57;;;;;;;;;;5042775;28;20307;-89
2021/06/07 06:49:04;;;;;;;6.57;5.73;;;;;;;;;;5031288;28;20185;-89
2021/06/07 06:52:09;;;;;;;7.77;7.03;;;;;;;;;;5031053;28;20176;-89
2021/06/07 06:55:13;;;;;;;6.83;6.13;;;;;;;;;;5031208;28;20184;-89
2021/06/07 06:58:18;;;;;;;6.30;5.70;;;;;;;;;;5031105;28;20184;-89
2021/06/07 07:01:23;;;;;;;7.17;6.17;;;;;;;;;;5031114;28;20180;-89
2021/06/07 07:04:27;;;;;;;7.40;6.47;;;;;;;;;;5053523;28;20220;-89
2021/06/07 07:07:31;;;;;;;6.17;5.40;;;;;;;;;;5053738;28;20220;-89
2021/06/07 07:10:37;;;;;;;7.17;5.10;;;;;;;;;;5042171;28;20524;-89
2021/06/07 07:13:41;;;;;;;6.63;5.93;;;;;;;;;;5031030;28;20520;-89
2021/06/07 07:16:46;;;;;;;4.83;4.43;;;;;;;;;;5041826;28;20219;-89
2021/06/07 07:19:50;;;;;;;6.53;4.80;;;;;;;;;;5030976;28;20195;-89
2021/06/07 07:22:54;;;;;;;5.33;4.57;;;;;;;;;;5042160;28;20240;-89
2021/06/07 07:25:59;;;;;;;4.10;3.70;;;;;;;;;;5042008;28;20199;-89
2021/06/07 07:29:03;;;;;;;4.17;3.70;;;;;;;;;;5030648;28;20180;-89
2021/06/07 07:32:08;;;;;;;6.40;3.90;;;;;;;;;;5030673;28;20176;-89
2021/06/07 07:35:13;;;;;;;4.67;4.27;;;;;;;;;;5030465;28;20246;-89
2021/06/07 07:38:17;;;;;;;4.07;3.67;;;;;;;;;;5030254;28;20208;-89
2021/06/07 07:41:22;;;;;;;4.27;3.50;;;;;;;;;;5032584;28;20195;-84
2021/06/07 07:44:27;;;;;;;2.60;2.40;;;;;;;;;;5044259;28;20181;-83
2021/06/07 07:47:31;;;;;;;2.53;2.30;;;;;;;;;;5045401;28;20215;-84
2021/06/07 07:50:36;;;;;;;3.40;3.10;;;;;;;;;;5046056;28;20200;-84
2021/06/07 07:53:41;;;;;;;3.23;2.93;;;;;;;;;;5052923;28;20658;-84
2021/06/07 07:56:45;;;;;;;4.03;2.37;;;;;;;;;;5038620;28;20232;-84
2021/06/07 07:59:49;;;;;;;2.50;2.00;;;;;;;;;;5025320;28;20188;-84
2021/06/07 08:02:55;;;;;;;6.37;3.10;;;;;;;;;;5045352;28;20656;-84
2021/06/07 08:06:00;;;;;;;2.50;2.30;;;;;;;;;;5040419;28;20211;-84
2021/06/07 08:09:05;;;;;;;2.00;1.80;;;;;;;;;;5048427;28;20184;-83
2021/06/07 08:12:09;;;;;;;6.93;2.07;;;;;;;;;;5045854;28;20177;-84
2021/06/07 08:15:14;;;;;;;2.40;1.93;;;;;;;;;;5033868;28;20173;-83
2021/06/07 08:18:19;;;;;;;1.93;1.30;;;;;;;;;;5048569;28;20190;-84
2021/06/07 08:21:23;;;;;;;1.47;1.37;;;;;;;;;;5036576;28;20181;-83
2021/06/07 08:24:28;;;;;;;1.60;1.50;;;;;;;;;;5025159;28;20181;-84
2021/06/07 08:27:32;;;;;;;1.53;1.43;;;;;;;;;;5031037;28;20221;-84
2021/06/07 08:30:36;;;;;;;3.25;1.40;;;;;;;;;;5062934;28;20198;-84
2021/06/07 08:33:40;;;;;;;1.88;1.30;;;;;;;;;;5055162;28;20181;-84
2021/06/07 08:36:45;;;;;;;1.17;0.90;;;;;;;;;;5072289;28;20222;-84
2021/06/07 08:39:49;;;;;;;2.20;0.90;;;;;;;;;;5064118;28;20188;-84
2021/06/07 08:42:53;;;;;;;12.25;1.98;;;;;;;;;;5058142;28;20185;-85
2021/06/07 08:45:57;;;;;;;1.30;1.20;;;;;;;;;;5044533;28;20217;-84
2021/06/07 08:49:01;;;;;;;1.67;1.23;;;;;;;;;;5033123;28;20513;-84
2021/06/07 08:52:07;;;;;;;2.15;1.45;;;;;;;;;;5060517;28;20185;-84
2021/06/07 08:55:15;;;;;;;2.88;1.15;;;;;;;;;;5061364;28;20535;-84
2021/06/07 08:58:19;;;;;;;1.65;1.20;;;;;;;;;;5060496;28;20195;-83
2021/06/07 09:01:23;;;;;;;3.00;1.30;;;;;;;;;;5054178;28;20198;-84
2021/06/07 09:04:27;;;;;;;2.45;1.25;;;;;;;;;;5031378;28;20523;-84
2021/06/07 09:07:32;;;;;;;1.73;1.63;;;;;;;;;;5054310;28;20688;-84
2021/06/07 09:10:43;;;;;;;1.38;1.20;;;;;;;;;;5032556;28;20539;-84
2021/06/07 09:13:48;;;;;;;1.67;1.33;;;;;;;;;;5049518;28;20537;-83
2021/06/07 09:16:54;;;;;;;1.38;1.20;;;;;;;;;;5044432;28;20211;-84
2021/06/07 09:20:14;;;;;;;1.30;1.20;;;;;;;;;;5057807;28;20203;-84
2021/06/07 09:23:20;;;;;;;2.70;1.20;;;;;;;;;;5058547;28;20188;-84
2021/06/07 09:26:26;;;;;;;0.93;0.90;;;;;;;;;;5055386;28;20224;-84
2021/06/07 09:29:34;;;;;;;0.90;0.90;;;;;;;;;;5059603;28;20199;-84
2021/06/07 09:32:38;;;;;;;3.15;1.15;;;;;;;;;;5067272;28;20190;-84
2021/06/07 09:35:43;;;;;;;1.43;1.10;;;;;;;;;;5058448;28;20191;-84
2021/06/07 09:39:07;;;;;;;1.02;0.93;;;;;;;;;;5064816;28;20194;-84
2021/06/07 09:42:14;;;;;;;2.10;1.10;;;;;;;;;;5041493;28;20192;-84
2021/06/07 09:45:37;;;;;;;14.63;1.90;;;;;;;;;;5044523;28;20220;-84
2021/06/07 09:48:42;;;;;;;1.57;1.17;;;;;;;;;;5037475;28;20194;-84
2021/06/07 09:51:59;;;;;;;2.10;1.30;;;;;;;;;;5075630;28;20198;-84
2021/06/07 09:55:17;;;;;;;1.93;1.40;;;;;;;;;;5068627;28;20184;-84
2021/06/07 09:58:30;;;;;;;4.50;1.40;;;;;;;;;;5053631;28;20202;-84
2021/06/07 10:01:43;;;;;;;3.77;1.23;;;;;;;;;;5055925;28;20190;-84
2021/06/07 10:04:58;;;;;;;2.77;1.40;;;;;;;;;;5066783;28;20180;-84
2021/06/07 10:08:02;;;;;;;10.77;3.00;;;;;;;;;;5064168;28;20552;-84
2021/06/07 10:11:26;;;;;;;1.20;1.10;;;;;;;;;;5059749;28;20203;-84
2021/06/07 10:14:30;;;;;;;1.27;0.90;;;;;;;;;;5057294;28;20185;-85
2021/06/07 10:17:35;;;;;;;2.07;1.00;;;;;;;;;;5057356;28;20214;-84
2021/06/07 10:20:49;;;;;;;7.75;1.70;;;;;;;;;;5055048;28;20181;-84
2021/06/07 10:23:54;;;;;;;1.92;1.10;;;;;;;;;;5048193;28;20203;-85
2021/06/07 10:26:59;;;;;;;2.10;1.15;;;;;;;;;;5056407;28;20233;-84
2021/06/07 10:30:15;;;;;;;1.10;1.00;;;;;;;;;;5039164;28;20508;-84
2021/06/07 10:33:28;;;;;;;3.78;1.27;;;;;;;;;;5048408;28;20191;-84
2021/06/07 10:36:37;;;;;;;1.33;1.00;;;;;;;;;;5067318;28;20226;-84
2021/06/07 10:39:42;;;;;;;6.28;1.10;;;;;;;;;;5059340;23;20233;-74
2021/06/07 10:42:54;;;;;;;1.60;1.10;;;;;;;;;;5054451;28;20191;-74
2021/06/07 10:46:22;;;;;;;4.53;1.13;;;;;;;;;;5053981;28;20225;-74
2021/06/07 10:49:35;;;;;;;3.05;1.33;;;;;;;;;;5054052;28;20198;-73
2021/06/07 10:52:51;;;;;;;2.88;1.15;;;;;;;;;;5054235;28;20185;-75
2021/06/07 10:56:11;;;;;;;1.20;1.08;;;;;;;;;;5054125;28;20559;-73
2021/06/07 10:59:15;;;;;;;2.58;1.05;;;;;;;;;;5052839;28;20650;-73
2021/06/07 11:02:21;;;;;;;2.10;1.20;;;;;;;;;;5053465;28;20191;-73
2021/06/07 11:05:33;;;;;;;4.32;2.03;;;;;;;;;;5052892;28;20650;-73
2021/06/07 11:08:38;;;;;;;1.55;1.40;;;;;;;;;;5045737;28;20196;-73
2021/06/07 11:11:47;;;;;;;2.35;1.27;;;;;;;;;;5040116;28;20187;-73
2021/06/07 11:15:10;;;;;;;1.50;1.40;;;;;;;;;;5034174;28;20526;-74
2021/06/07 11:18:35;;;;;;;3.10;1.55;;;;;;;;;;5049954;28;20193;-73
2021/06/07 11:21:46;;;;;;;11.48;2.60;;;;;;;;;;5052640;28;20198;-73
2021/06/07 11:24:51;;;;;;;2.03;1.42;;;;;;;;;;5053700;28;20673;-73
2021/06/07 11:27:55;;;;;;;1.50;1.40;;;;;;;;;;5053119;28;20187;-74
2021/06/07 11:31:00;;;;;;;2.60;1.50;;;;;;;;;;5053647;28;20182;-73
2021/06/07 11:34:06;;;;;;;1.70;1.60;;;;;;;;;;5052407;28;20655;-73
2021/06/07 11:37:35;;;;;;;2.55;1.40;;;;;;;;;;5053283;28;20217;-73
2021/06/07 11:40:39;;;;;;;1.50;1.40;;;;;;;;;;5052992;28;20209;-73
2021/06/07 11:43:46;;;;;;;2.17;1.63;;;;;;;;;;5033769;28;20184;-74
2021/06/07 11:46:51;;;;;;;1.60;1.40;;;;;;;;;;5041447;28;20564;-72
2021/06/07 11:49:55;;;;;;;1.17;1.08;;;;;;;;;;5032740;28;20640;-73
2021/06/07 11:53:15;;;;;;;2.20;1.42;;;;;;;;;;5032924;28;20627;-74
2021/06/07 11:56:22;;;;;;;1.52;1.33;;;;;;;;;;5054651;28;20215;-73
2021/06/07 11:59:31;;;;;;;29.70;2.83;;;;;;;;;;5053335;28;20621;-74
2021/06/07 12:02:36;;;;;;;1.50;1.30;;;;;;;;;;5052999;28;20192;-74
2021/06/07 12:05:40;;;;;;;1.60;1.50;;;;;;;;;;5053127;28;20228;-74
2021/06/07 12:08:44;;;;;;;7.50;2.15;;;;;;;;;;5051697;28;20547;-74
2021/06/07 12:11:48;;;;;;;3.17;1.77;;;;;;;;;;5051736;28;20192;-74
2021/06/07 12:14:53;;;;;;;1.75;1.65;;;;;;;;;;5052780;28;20647;-74
2021/06/07 12:17:59;;;;;;;2.05;1.60;;;;;;;;;;5044415;28;20185;-72
2021/06/07 12:21:14;;;;;;;1.70;1.60;;;;;;;;;;5040677;28;20185;-73
2021/06/07 12:24:20;;;;;;;1.60;1.50;;;;;;;;;;5042404;28;20180;-74
2021/06/07 12:30:57;;;;;;;2.35;1.95;;;;;;;;;;5052340;28;20196;-73
2021/06/07 12:34:08;;;;;;;2.20;1.73;;;;;;;;;;5038298;28;20651;-73
2021/06/07 12:37:25;;;;;;;1.90;1.70;;;;;;;;;;5044784;28;20213;-73
2021/06/07 12:40:43;;;;;;;4.35;1.80;;;;;;;;;;5035642;28;20205;-73
2021/06/07 12:43:48;;;;;;;3.42;1.70;;;;;;;;;;5041078;28;20643;-73
2021/06/07 12:46:55;;;;;;;2.38;1.80;;;;;;;;;;5033068;28;20221;-74
2021/06/07 12:50:26;;;;;;;1.92;1.67;;;;;;;;;;5043641;28;20181;-73
2021/06/07 12:53:36;;;;;;;2.92;1.58;;;;;;;;;;5047579;28;20185;-74
2021/06/07 12:56:40;;;;;;;1.38;1.27;;;;;;;;;;5054680;28;20212;-73
2021/06/07 12:59:44;;;;;;;1.35;1.25;;;;;;;;;;5056350;28;20181;-74
2021/06/07 13:02:49;;;;;;;2.83;1.60;;;;;;;;;;5056607;28;20177;-74
2021/06/07 13:06:05;;;;;;;2.70;1.60;;;;;;;;;;5056341;28;20216;-74
2021/06/07 13:09:11;;;;;;;5.50;1.80;;;;;;;;;;5056301;28;20196;-74
2021/06/07 13:12:27;;;;;;;2.38;1.70;;;;;;;;;;5056150;28;20176;-75
2021/06/07 13:15:31;;;;;;;2.08;1.83;;;;;;;;;;5056385;28;20177;-73
2021/06/07 13:18:57;;;;;;;2.00;1.80;;;;;;;;;;5050931;28;20185;-74
2021/06/07 13:22:03;;;;;;;2.55;1.50;;;;;;;;;;5055490;28;20176;-74
2021/06/07 13:25:15;;;;;;;3.20;1.67;;;;;;;;;;5054797;28;20187;-74
2021/06/07 13:28:20;;;;;;;2.85;1.70;;;;;;;;;;5055014;28;20208;-74
2021/06/07 13:31:25;;;;;;;2.13;1.80;;;;;;;;;;5051115;28;20642;-74
2021/06/07 13:34:48;;;;;;;2.25;2.03;;;;;;;;;;5055971;28;20198;-74
2021/06/07 13:37:52;;;;;;;2.42;1.85;;;;;;;;;;5066697;28;20177;-74
2021/06/07 13:41:07;;;;;;;2.00;1.90;;;;;;;;;;5062076;28;20632;-74
2021/06/07 13:44:10;;;;;;;6.45;2.22;;;;;;;;;;5055874;28;20179;-74
2021/06/07 13:47:25;;;;;;;2.50;2.20;;;;;;;;;;5055930;28;20212;-74
2021/06/07 13:50:43;;;;;;;5.38;2.35;;;;;;;;;;5054565;28;20196;-74
2021/06/07 13:53:47;;;;;;;3.40;2.10;;;;;;;;;;5061550;28;20186;-74
2021/06/07 13:57:01;;;;;;;2.60;2.30;;;;;;;;;;5054820;28;20696;-74
2021/06/07 14:00:06;;;;;;;3.80;2.10;;;;;;;;;;5066549;28;20186;-74
2021/06/07 14:03:21;;;;;;;5.13;2.17;;;;;;;;;;5055508;28;20186;-74
2021/06/07 14:06:26;;;;;;;4.07;2.33;;;;;;;;;;5054369;28;20220;-74
2021/06/07 14:09:30;;;;;;;2.97;2.42;;;;;;;;;;5065656;28;20184;-74
2021/06/07 14:12:34;;;;;;;2.33;2.13;;;;;;;;;;5055082;28;20536;-74
2021/06/07 14:15:38;;;;;;;4.63;2.10;;;;;;;;;;5055156;28;20214;-74
2021/06/07 14:18:42;;;;;;;2.15;1.95;;;;;;;;;;5054373;28;20179;-74
2021/06/07 14:25:09;;;;;;;2.95;2.25;;;;;;;;;;5055141;28;20188;-75
2021/06/07 14:28:14;;;;;;;5.68;2.30;;;;;;;;;;5053882;28;20209;-74
2021/06/07 14:31:19;;;;;;;2.20;2.00;;;;;;;;;;5055029;28;20186;-74
2021/06/07 14:34:23;;;;;;;3.90;2.20;;;;;;;;;;5054968;28;20190;-75
2021/06/07 14:37:28;;;;;;;2.53;2.25;;;;;;;;;;5053736;28;20209;-74
2021/06/07 14:40:35;;;;;;;6.28;2.90;;;;;;;;;;5054722;28;20197;-74
2021/06/07 14:43:42;;;;;;;3.42;2.30;;;;;;;;;;5055089;28;20179;-74
2021/06/07 14:46:48;;;;;;;2.38;2.17;;;;;;;;;;5063511;28;20223;-74
2021/06/07 14:49:53;;;;;;;4.80;2.10;;;;;;;;;;5053304;28;20193;-74
2021/06/07 14:52:57;;;;;;;2.72;2.13;;;;;;;;;;5054772;28;20192;-75
2021/06/07 14:56:04;;;;;;;34.50;7.30;;;;;;;;;;5034695;28;20224;-75
2021/06/07 14:59:08;;;;;;;3.53;2.22;;;;;;;;;;5033665;28;20199;-75
2021/06/07 15:02:12;;;;;;;4.60;2.25;;;;;;;;;;5034201;28;20200;-75
2021/06/07 15:05:17;;;;;;;3.33;2.28;;;;;;;;;;5059070;28;20543;-75
2021/06/07 15:08:21;;;;;;;5.50;2.45;;;;;;;;;;5048078;28;20221;-75
2021/06/07 15:11:25;;;;;;;6.05;2.33;;;;;;;;;;5053636;28;20209;-75
2021/06/07 15:14:30;;;;;;;10.40;3.33;;;;;;;;;;5044674;28;20187;-75
2021/06/07 15:17:34;;;;;;;3.50;2.72;;;;;;;;;;5033795;28;20216;-74
2021/06/07 15:20:38;;;;;;;8.68;2.70;;;;;;;;;;5033985;28;20203;-75
2021/06/07 15:23:43;;;;;;;6.15;3.15;;;;;;;;;;5050128;28;20197;-74
2021/06/07 15:26:47;;;;;;;4.63;3.00;;;;;;;;;;5053012;28;20243;-75
2021/06/07 15:29:51;;;;;;;3.17;2.88;;;;;;;;;;5054011;28;20194;-76
2021/06/07 15:32:57;;;;;;;13.13;3.13;;;;;;;;;;5053209;28;20655;-75
2021/06/07 15:36:01;;;;;;;3.22;2.80;;;;;;;;;;5047826;28;20699;-74
2021/06/07 15:39:05;;;;;;;8.15;2.75;;;;;;;;;;5045376;28;20209;-74
2021/06/07 15:42:09;;;;;;;8.30;3.30;;;;;;;;;;5035630;28;20192;-74
2021/06/07 15:45:14;;;;;;;8.75;3.50;;;;;;;;;;5051800;28;20181;-73
2021/06/07 15:48:20;;;;;;;5.93;2.67;;;;;;;;;;5034545;28;20223;-74
2021/06/07 15:51:27;;;;;;;10.02;3.13;;;;;;;;;;5021207;28;20210;-74
2021/06/07 15:54:31;;;;;;;3.13;2.92;;;;;;;;;;5048704;28;20182;-73
2021/06/07 15:57:35;;;;;;;6.88;3.45;;;;;;;;;;5052880;28;20698;-74
2021/06/07 16:00:41;;;;;;;5.25;3.10;;;;;;;;;;5052874;28;20538;-74
2021/06/07 16:03:47;;;;;;;2.92;2.63;;;;;;;;;;5048471;28;20200;-74
2021/06/07 16:06:51;;;;;;;6.32;2.90;;;;;;;;;;5017499;28;20224;-74
2021/06/07 16:09:55;;;;;;;3.13;2.85;;;;;;;;;;5037009;28;20188;-74
2021/06/07 16:13:00;;;;;;;4.53;2.80;;;;;;;;;;5048966;28;20184;-73
2021/06/07 16:16:14;;;;;;;2.83;2.53;;;;;;;;;;5040026;28;20699;-74
2021/06/07 16:19:29;;;;;;;2.87;2.63;;;;;;;;;;5030199;28;20184;-74
2021/06/07 16:22:33;;;;;;;3.80;3.10;;;;;;;;;;5048667;28;20187;-74
2021/06/07 16:25:42;;;;;;;3.27;2.90;;;;;;;;;;5042256;28;20222;-74
2021/06/07 16:28:47;;;;;;;4.60;2.73;;;;;;;;;;5028534;28;20581;-74
2021/06/07 16:31:51;;;;;;;10.53;3.40;;;;;;;;;;5046769;28;20539;-74
2021/06/07 16:34:55;;;;;;;3.57;3.20;;;;;;;;;;5052342;28;20200;-74
2021/06/07 16:38:00;;;;;;;5.50;2.87;;;;;;;;;;5052398;28;20413;-74
2021/06/07 16:41:05;;;;;;;5.63;3.20;;;;;;;;;;5052002;28;20196;-74
2021/06/07 16:44:09;;;;;;;7.20;3.90;;;;;;;;;;5046445;28;20190;-74
2021/06/07 16:47:13;;;;;;;9.50;3.83;;;;;;;;;;5033182;28;20216;-74
2021/06/07 16:50:18;;;;;;;3.43;2.93;;;;;;;;;;5033771;28;20656;-74
2021/06/07 16:53:23;;;;;;;5.73;3.37;;;;;;;;;;5047181;28;20191;-74
2021/06/07 16:56:27;;;;;;;10.00;4.00;;;;;;;;;;5043470;28;20226;-74
2021/06/07 16:59:31;;;;;;;8.60;3.50;;;;;;;;;;5032629;28;20175;-74
2021/06/07 17:02:36;;;;;;;6.30;3.40;;;;;;;;;;5051425;28;20545;-74
2021/06/07 17:05:41;;;;;;;4.53;3.30;;;;;;;;;;5052039;28;20216;-74
2021/06/07 17:08:46;;;;;;;5.03;3.50;;;;;;;;;;5052075;28;20638;-74
2021/06/07 17:11:51;;;;;;;9.73;3.70;;;;;;;;;;5052393;28;20193;-74
2021/06/07 17:14:55;;;;;;;6.97;4.03;;;;;;;;;;5057159;28;20197;-74
2021/06/07 17:18:03;;;;;;;5.50;3.40;;;;;;;;;;5052035;28;20186;-74
2021/06/07 17:21:07;;;;;;;4.27;3.83;;;;;;;;;;5050824;28;20188;-74
2021/06/07 17:24:12;;;;;;;10.47;3.93;;;;;;;;;;5031862;28;20185;-74
2021/06/07 17:27:16;;;;;;;6.77;3.60;;;;;;;;;;5051561;28;21521;-74
2021/06/07 17:30:21;;;;;;;4.30;3.77;;;;;;;;;;5085005;22;20224;-87
2021/06/07 17:33:26;;;;;;;5.70;3.70;;;;;;;;;;5055566;28;20181;-86
2021/06/07 17:36:31;;;;;;;6.03;3.40;;;;;;;;;;5056232;28;20184;-86
2021/06/07 17:39:35;;;;;;;4.60;3.40;;;;;;;;;;5033047;28;20217;-86
2021/06/07 17:42:40;;;;;;;6.63;3.80;;;;;;;;;;5030960;28;20196;-87
2021/06/07 17:45:44;;;;;;;5.83;3.40;;;;;;;;;;5012199;28;20524;-87
2021/06/07 17:48:51;;;;;;;5.00;3.40;;;;;;;;;;5032609;28;20208;-86
2021/06/07 17:51:56;;;;;;;3.90;3.53;;;;;;;;;;5033839;28;20639;-86
2021/06/07 17:55:00;;;;;;;3.73;3.30;;;;;;;;;;5033636;28;20176;-86
2021/06/07 17:58:04;;;;;;;6.83;3.40;;;;;;;;;;5030097;28;20192;-85
2021/06/07 18:01:09;;;;;;;5.30;3.80;;;;;;;;;;5012867;28;20225;-85
2021/06/07 18:04:13;;;;;;;4.60;3.70;;;;;;;;;;5022598;28;20548;-86
2021/06/07 18:07:18;;;;;;;4.10;3.70;;;;;;;;;;5002101;28;20193;-85
2021/06/07 18:10:22;;;;;;;7.33;3.80;;;;;;;;;;5052728;28;20208;-85
2021/06/07 18:13:26;;;;;;;5.93;3.67;;;;;;;;;;5027806;28;20615;-85
2021/06/07 18:16:06;;;;;;;6.03;3.83;;;;;;;;;;5109918;27;20325;-74
2021/06/07 18:19:11;;;;;;;6.23;4.00;;;;;;;;;;5086375;28;20680;-74
2021/06/07 18:22:15;;;;;;;4.13;3.67;;;;;;;;;;5086616;28;20179;-72
2021/06/07 18:25:19;;;;;;;4.27;3.87;;;;;;;;;;5086399;28;20178;-74
2021/06/07 18:28:23;;;;;;;5.97;4.10;;;;;;;;;;5065843;28;20206;-74
2021/06/07 18:31:28;;;;;;;6.47;4.33;;;;;;;;;;5066767;28;20187;-74
2021/06/07 18:34:32;;;;;;;4.17;3.83;;;;;;;;;;5074404;28;20573;-74
2021/06/07 18:37:37;;;;;;;4.07;3.67;;;;;;;;;;5085209;28;20222;-74